createdAt,value
2018-07-14T00:00:58.694Z,95.60
2018-07-14T00:03:27.338Z,95.50
2018-07-14T00:05:55.472Z,95.70
2018-07-14T00:08:23.618Z,96.00
2018-07-14T00:10:51.754Z,96.20
2018-07-14T00:13:19.881Z,96.50
2018-07-14T00:15:48.024Z,96.60
2018-07-14T00:18:16.138Z,96.60
2018-07-14T00:20:44.325Z,96.80
2018-07-14T00:23:12.442Z,96.90
2018-07-14T00:25:46.076Z,97.00
2018-07-14T00:28:14.252Z,97.10
2018-07-14T00:30:42.519Z,97.10
2018-07-14T00:33:10.655Z,97.20
2018-07-14T00:35:38.784Z,97.30
2018-07-14T00:38:06.949Z,97.40
2018-07-14T00:40:35.082Z,97.50
2018-07-14T00:43:03.217Z,98.10
2018-07-14T00:45:31.345Z,98.20
2018-07-14T00:47:59.502Z,98.00
2018-07-14T00:50:27.678Z,97.90
2018-07-14T00:52:55.834Z,97.70
2018-07-14T00:55:24.004Z,97.90
2018-07-14T00:57:52.153Z,97.70
2018-07-14T01:00:20.305Z,97.90
2018-07-14T01:02:48.558Z,97.90
2018-07-14T01:05:16.728Z,98.00
2018-07-14T01:07:44.902Z,98.10
2018-07-14T01:10:13.117Z,98.10
2018-07-14T01:12:41.267Z,98.20
2018-07-14T01:15:09.423Z,98.20
2018-07-14T01:17:37.561Z,98.30
2018-07-14T01:20:05.667Z,98.50
2018-07-14T01:22:33.816Z,98.70
2018-07-14T01:25:01.950Z,98.90
2018-07-14T01:27:30.074Z,99.00
2018-07-14T01:29:58.205Z,99.10
2018-07-14T01:32:26.328Z,99.10
2018-07-14T01:34:54.483Z,99.20
2018-07-14T01:37:22.624Z,99.20
2018-07-14T01:39:50.911Z,99.40
2018-07-14T01:42:19.075Z,99.40
2018-07-14T01:44:47.303Z,99.30
2018-07-14T01:47:15.496Z,99.20
2018-07-14T01:49:43.677Z,99.30
2018-07-14T01:54:39.766Z,99.60
2018-07-14T01:57:07.938Z,99.80
2018-07-14T01:59:36.338Z,99.90
2018-07-14T02:02:04.473Z,99.90
2018-07-14T02:04:32.627Z,99.90
2018-07-14T02:07:00.782Z,99.90
2018-07-14T02:09:28.899Z,99.90
2018-07-14T02:11:57.030Z,99.90
2018-07-14T02:14:25.177Z,99.90
2018-07-14T02:16:53.364Z,99.90
2018-07-14T02:19:21.554Z,99.90
2018-07-14T02:21:49.738Z,99.90
2018-07-14T02:24:17.892Z,99.90
2018-07-14T02:26:46.082Z,99.90
2018-07-14T02:29:14.290Z,99.90
2018-07-14T02:31:42.422Z,99.90
2018-07-14T02:34:10.580Z,99.90
2018-07-14T02:36:38.741Z,99.90
2018-07-14T02:39:07.079Z,99.90
2018-07-14T02:46:31.522Z,99.90
2018-07-14T02:48:59.766Z,99.90
2018-07-14T02:53:55.818Z,99.90
2018-07-14T02:56:23.973Z,99.90
2018-07-14T02:58:52.112Z,99.90
2018-07-14T03:01:20.291Z,99.90
2018-07-14T03:03:48.455Z,99.90
2018-07-14T03:06:16.781Z,99.90
2018-07-14T03:08:44.918Z,99.90
2018-07-14T03:11:13.047Z,99.90
2018-07-14T03:13:41.201Z,99.90
2018-07-14T03:16:09.333Z,99.90
2018-07-14T03:18:37.484Z,99.90
2018-07-14T03:21:05.785Z,99.90
2018-07-14T03:23:33.980Z,99.90
2018-07-14T03:26:02.111Z,99.90
2018-07-14T03:28:30.285Z,99.90
2018-07-14T03:30:58.410Z,99.90
2018-07-14T03:33:26.573Z,99.90
2018-07-14T03:35:54.703Z,99.90
2018-07-14T03:38:22.834Z,99.90
2018-07-14T03:40:50.950Z,99.90
2018-07-14T03:43:19.090Z,99.90
2018-07-14T03:45:47.230Z,99.90
2018-07-14T03:48:15.373Z,99.90
2018-07-14T03:50:43.525Z,99.90
2018-07-14T03:53:11.658Z,99.90
2018-07-14T03:55:39.789Z,99.90
2018-07-14T03:58:07.922Z,99.90
2018-07-14T04:00:36.085Z,99.90
2018-07-14T04:03:04.205Z,99.90
2018-07-14T04:05:32.332Z,99.90
2018-07-14T04:08:00.463Z,99.90
2018-07-14T04:10:28.666Z,99.90
2018-07-14T04:12:56.788Z,99.90
2018-07-14T04:15:24.970Z,99.90
2018-07-14T04:17:58.458Z,99.90
2018-07-14T04:20:26.613Z,99.90
2018-07-14T04:22:54.759Z,99.90
2018-07-14T04:25:22.902Z,99.90
2018-07-14T04:27:51.084Z,99.90
2018-07-14T04:30:19.265Z,99.90
2018-07-14T04:32:47.412Z,99.90
2018-07-14T04:35:15.533Z,99.90
2018-07-14T04:37:43.689Z,99.90
2018-07-14T04:40:11.822Z,99.90
2018-07-14T04:42:39.978Z,99.90
2018-07-14T04:45:08.139Z,99.90
2018-07-14T04:47:36.277Z,99.90
2018-07-14T04:50:04.438Z,99.90
2018-07-14T04:52:32.575Z,99.90
2018-07-14T04:55:00.719Z,99.90
2018-07-14T04:57:28.872Z,99.60
2018-07-14T05:00:09.633Z,99.40
2018-07-14T05:02:37.795Z,99.20
2018-07-14T05:05:05.972Z,98.90
2018-07-14T05:07:34.251Z,99.20
2018-07-14T05:10:02.415Z,98.70
2018-07-14T05:12:30.593Z,98.60
2018-07-14T05:14:58.783Z,98.40
2018-07-14T05:17:26.971Z,98.20
2018-07-14T05:19:55.161Z,98.10
2018-07-14T05:22:23.319Z,97.80
2018-07-14T05:24:51.508Z,97.50
2018-07-14T05:27:19.650Z,97.10
2018-07-14T05:29:47.834Z,96.90
2018-07-14T05:32:15.983Z,96.70
2018-07-14T05:34:44.317Z,96.30
2018-07-14T05:37:12.484Z,96.00
2018-07-14T05:39:40.632Z,95.80
2018-07-14T05:42:08.839Z,95.60
2018-07-14T05:44:36.977Z,95.10
2018-07-14T05:47:05.231Z,95.00
2018-07-14T05:49:33.394Z,94.60
2018-07-14T05:52:01.657Z,94.40
2018-07-14T05:54:29.775Z,94.40
2018-07-14T05:56:58.292Z,94.40
2018-07-14T05:59:26.460Z,94.00
2018-07-14T06:01:54.628Z,93.80
2018-07-14T06:04:22.771Z,93.40
2018-07-14T06:06:50.965Z,92.90
2018-07-14T06:09:19.124Z,92.50
2018-07-14T06:11:47.307Z,92.30
2018-07-14T06:14:15.580Z,91.70
2018-07-14T06:16:43.796Z,91.50
2018-07-14T06:19:11.984Z,91.30
2018-07-14T06:21:40.139Z,91.10
2018-07-14T06:24:08.319Z,90.70
2018-07-14T06:26:36.474Z,90.30
2018-07-14T06:29:04.626Z,89.90
2018-07-14T06:31:32.784Z,89.00
2018-07-14T06:34:01.402Z,88.10
2018-07-14T06:36:29.916Z,87.30
2018-07-14T06:38:58.064Z,86.20
2018-07-14T06:41:26.323Z,85.90
2018-07-14T06:43:54.512Z,83.90
2018-07-14T06:46:22.691Z,81.60
2018-07-14T06:48:50.941Z,80.20
2018-07-14T06:51:19.084Z,78.70
2018-07-14T06:53:47.250Z,78.60
2018-07-14T06:56:15.387Z,75.70
2018-07-14T06:58:43.571Z,73.30
2018-07-14T07:01:11.708Z,70.20
2018-07-14T07:03:39.904Z,67.60
2018-07-14T07:06:08.076Z,64.50
2018-07-14T07:08:36.932Z,62.20
2018-07-14T07:11:05.110Z,60.10
2018-07-14T07:13:33.362Z,59.40
2018-07-14T07:16:01.488Z,58.20
2018-07-14T07:18:29.648Z,57.30
2018-07-14T07:20:57.817Z,56.20
2018-07-14T07:23:26.008Z,55.80
2018-07-14T07:25:54.476Z,54.80
2018-07-14T07:28:22.660Z,54.20
2018-07-14T07:30:50.824Z,52.50
2018-07-14T07:33:19.008Z,52.10
2018-07-14T07:35:47.174Z,51.80
2018-07-14T07:38:36.372Z,50.90
2018-07-14T07:41:05.392Z,49.30
2018-07-14T07:43:33.565Z,48.70
2018-07-14T07:46:01.717Z,48.90
2018-07-14T07:48:29.880Z,47.60
2018-07-14T07:50:58.352Z,46.50
2018-07-14T07:53:26.551Z,45.60
2018-07-14T07:55:54.762Z,46.00
2018-07-14T07:58:22.940Z,45.20
2018-07-14T08:00:51.125Z,44.40
2018-07-14T08:03:19.291Z,45.10
2018-07-14T08:05:47.461Z,44.20
2018-07-14T08:08:15.625Z,43.90
2018-07-14T08:10:43.791Z,43.70
2018-07-14T08:13:12.114Z,43.00
2018-07-14T08:15:40.300Z,42.70
2018-07-14T08:18:08.493Z,43.00
2018-07-14T08:20:36.653Z,42.90
2018-07-14T08:23:05.021Z,42.90
2018-07-14T08:25:33.203Z,42.60
2018-07-14T08:28:01.395Z,42.00
2018-07-14T08:30:29.544Z,42.70
2018-07-14T08:32:57.696Z,41.40
2018-07-14T08:35:25.871Z,43.10
2018-07-14T08:37:54.243Z,40.90
2018-07-14T08:40:22.503Z,40.70
2018-07-14T08:42:50.667Z,41.30
2018-07-14T08:45:18.834Z,40.90
2018-07-14T08:47:47.132Z,41.30
2018-07-14T08:50:15.272Z,39.80
2018-07-14T08:52:43.435Z,39.40
2018-07-14T08:55:11.635Z,39.10
2018-07-14T08:57:39.780Z,39.30
2018-07-14T09:00:07.982Z,38.70
2018-07-14T09:02:36.354Z,38.20
2018-07-14T09:05:04.638Z,37.20
2018-07-14T09:07:32.885Z,36.70
2018-07-14T09:10:01.041Z,36.80
2018-07-14T09:12:29.191Z,37.30
2018-07-14T09:14:57.346Z,37.50
2018-07-14T09:17:25.507Z,37.10
2018-07-14T09:19:53.703Z,36.30
2018-07-14T09:22:21.915Z,35.90
2018-07-14T09:24:50.087Z,36.10
2018-07-14T09:27:18.324Z,35.60
2018-07-14T09:29:46.458Z,37.30
2018-07-14T09:32:14.636Z,36.10
2018-07-14T09:37:10.740Z,33.00
2018-07-14T09:39:39.141Z,32.90
2018-07-14T09:42:07.312Z,32.40
2018-07-14T09:44:35.536Z,34.10
2018-07-14T09:47:03.641Z,34.20
2018-07-14T09:49:31.786Z,34.40
2018-07-14T09:51:59.977Z,33.80
2018-07-14T09:54:28.175Z,33.60
2018-07-14T09:56:56.483Z,34.50
2018-07-14T09:59:24.701Z,33.30
2018-07-14T10:01:52.875Z,32.50
2018-07-14T10:04:21.047Z,32.70
2018-07-14T10:06:49.245Z,32.80
2018-07-14T10:09:17.411Z,33.90
2018-07-14T10:11:45.603Z,33.00
2018-07-14T10:14:13.739Z,32.80
2018-07-14T10:16:41.971Z,32.90
2018-07-14T10:19:10.140Z,31.60
2018-07-14T10:21:38.419Z,32.10
2018-07-14T10:24:06.645Z,32.20
2018-07-14T10:26:34.868Z,31.70
2018-07-14T10:29:03.216Z,30.90
2018-07-14T10:31:31.563Z,30.60
2018-07-14T10:33:59.918Z,30.00
2018-07-14T10:36:28.008Z,30.50
2018-07-14T10:41:24.154Z,29.10
2018-07-14T10:43:52.377Z,28.30
2018-07-14T10:46:20.568Z,28.40
2018-07-14T10:48:48.758Z,27.80
2018-07-14T10:51:16.928Z,28.10
2018-07-14T10:53:45.079Z,29.00
2018-07-14T10:56:13.237Z,28.10
2018-07-14T10:58:41.946Z,28.60
2018-07-14T11:01:10.342Z,29.20
2018-07-14T11:03:38.535Z,29.90
2018-07-14T11:06:06.774Z,31.30
2018-07-14T11:08:34.936Z,32.50
2018-07-14T11:11:04.131Z,33.40
2018-07-14T11:13:32.746Z,34.20
2018-07-14T11:16:00.973Z,34.10
2018-07-14T11:20:57.155Z,35.80
2018-07-14T11:23:25.286Z,36.30
2018-07-14T11:25:53.454Z,37.20
2018-07-14T11:28:21.614Z,37.80
2018-07-14T11:30:49.810Z,38.10
2018-07-14T11:33:17.990Z,41.40
2018-07-14T11:35:46.126Z,44.50
2018-07-14T11:38:14.302Z,44.50
2018-07-14T11:40:42.448Z,48.00
2018-07-14T11:43:10.645Z,48.10
2018-07-14T11:45:38.778Z,45.00
2018-07-14T11:48:06.943Z,46.10
2018-07-14T11:50:35.299Z,43.50
2018-07-14T11:53:03.506Z,42.90
2018-07-14T11:55:31.777Z,42.90
2018-07-14T11:57:59.965Z,43.50
2018-07-14T12:00:28.142Z,42.70
2018-07-14T12:02:56.385Z,41.10
2018-07-14T12:05:24.543Z,40.00
2018-07-14T12:07:52.725Z,38.20
2018-07-14T12:10:20.953Z,35.60
2018-07-14T12:12:49.105Z,34.80
2018-07-14T12:15:17.273Z,31.60
2018-07-14T12:17:45.441Z,31.00
2018-07-14T12:20:13.768Z,30.00
2018-07-14T12:22:41.943Z,30.00
2018-07-14T12:25:10.117Z,30.60
2018-07-14T12:27:38.547Z,30.20
2018-07-14T12:30:06.753Z,29.90
2018-07-14T12:32:34.898Z,29.20
2018-07-14T12:35:03.054Z,28.20
2018-07-14T12:37:31.299Z,29.40
2018-07-14T12:40:02.818Z,29.30
2018-07-14T12:42:31.047Z,29.90
2018-07-14T12:44:59.190Z,30.10
2018-07-14T12:47:28.299Z,31.10
2018-07-14T12:49:56.481Z,31.80
2018-07-14T12:52:24.707Z,32.90
2018-07-14T12:54:52.923Z,32.70
2018-07-14T12:57:21.126Z,32.60
2018-07-14T12:59:50.245Z,32.90
2018-07-14T13:02:18.572Z,33.20
2018-07-14T13:04:46.767Z,34.70
2018-07-14T13:07:15.351Z,32.70
2018-07-14T13:09:43.483Z,31.50
2018-07-14T13:14:40.258Z,32.20
2018-07-14T13:17:09.023Z,31.50
2018-07-14T13:22:06.428Z,32.30
2018-07-14T13:24:34.622Z,32.50
2018-07-14T13:27:02.775Z,32.60
2018-07-14T13:29:31.350Z,32.10
2018-07-14T13:32:00.171Z,32.50
2018-07-14T13:34:28.456Z,32.60
2018-07-14T13:36:56.742Z,31.90
2018-07-14T13:39:25.242Z,32.40
2018-07-14T13:41:54.609Z,30.60
2018-07-14T13:44:22.786Z,29.40
2018-07-14T13:46:51.130Z,28.40
2018-07-14T13:49:19.670Z,28.20
2018-07-14T13:51:47.953Z,27.60
2018-07-14T13:54:16.357Z,27.60
2018-07-14T13:56:44.652Z,27.20
2018-07-14T13:59:15.002Z,26.50
2018-07-14T14:01:43.347Z,26.60
2018-07-14T14:04:11.532Z,26.70
2018-07-14T14:06:39.682Z,25.70
2018-07-14T14:09:08.148Z,24.30
2018-07-14T14:11:36.478Z,24.20
2018-07-14T14:14:04.778Z,24.00
2018-07-14T14:16:33.070Z,24.30
2018-07-14T14:19:01.339Z,24.50
2018-07-14T14:21:29.558Z,24.70
2018-07-14T14:23:57.728Z,23.90
2018-07-14T14:26:25.961Z,23.60
2018-07-14T14:28:54.222Z,24.30
2018-07-14T14:31:22.490Z,24.50
2018-07-14T14:33:50.695Z,24.20
2018-07-14T14:36:19.390Z,24.30
2018-07-14T14:38:47.642Z,24.40
2018-07-14T14:41:15.938Z,24.60
2018-07-14T14:43:45.588Z,24.10
2018-07-14T14:46:13.755Z,24.30
2018-07-14T14:48:41.990Z,24.20
2018-07-14T14:51:10.259Z,24.40
2018-07-14T14:53:38.651Z,24.40
2018-07-14T14:56:06.902Z,24.20
2018-07-14T14:58:35.024Z,24.40
2018-07-14T15:01:03.251Z,24.90
2018-07-14T15:03:31.395Z,25.10
2018-07-14T15:05:59.543Z,25.60
2018-07-14T15:08:27.790Z,26.20
2018-07-14T15:10:55.982Z,27.20
2018-07-14T15:13:24.327Z,27.60
2018-07-14T15:15:52.513Z,27.90
2018-07-14T15:18:20.825Z,28.00
2018-07-14T15:20:49.046Z,28.90
2018-07-14T15:23:17.446Z,29.50
2018-07-14T15:25:45.798Z,29.50
2018-07-14T15:28:15.075Z,29.30
2018-07-14T15:30:43.422Z,28.80
2018-07-14T15:33:12.139Z,28.60
2018-07-14T15:35:40.290Z,28.30
2018-07-14T15:38:08.738Z,28.90
2018-07-14T15:40:36.938Z,29.60
2018-07-14T15:43:05.355Z,30.40
2018-07-14T15:45:33.570Z,31.40
2018-07-14T15:48:02.934Z,32.20
2018-07-14T15:50:31.185Z,32.40
2018-07-14T15:53:00.470Z,32.70
2018-07-14T15:55:28.691Z,32.50
2018-07-14T15:57:56.888Z,30.70
2018-07-14T16:00:25.231Z,29.90
2018-07-14T16:02:53.446Z,29.40
2018-07-14T16:05:21.741Z,29.20
2018-07-14T16:07:50.063Z,29.00
2018-07-14T16:10:18.366Z,28.60
2018-07-14T16:12:46.573Z,28.40
2018-07-14T16:15:14.957Z,28.50
2018-07-14T16:17:43.201Z,28.20
2018-07-14T16:20:11.539Z,27.80
2018-07-14T16:22:39.801Z,27.40
2018-07-14T16:25:10.103Z,27.20
2018-07-14T16:27:38.390Z,26.80
2018-07-14T16:30:06.793Z,26.90
2018-07-14T16:32:35.151Z,26.60
2018-07-14T16:35:03.673Z,26.80
2018-07-14T16:37:31.912Z,26.60
2018-07-14T16:40:00.319Z,28.00
2018-07-14T16:42:28.870Z,27.20
2018-07-14T16:44:57.037Z,27.40
2018-07-14T16:47:25.198Z,28.30
2018-07-14T16:49:53.407Z,28.60
2018-07-14T16:52:21.661Z,28.80
2018-07-14T16:54:49.874Z,29.60
2018-07-14T16:57:18.238Z,29.90
2018-07-14T16:59:46.442Z,29.70
2018-07-14T17:02:15.056Z,29.90
2018-07-14T17:04:43.387Z,30.40
2018-07-14T17:07:11.974Z,30.50
2018-07-14T17:09:40.365Z,31.00
2018-07-14T17:12:09.104Z,30.90
2018-07-14T17:14:38.112Z,31.80
2018-07-14T17:17:07.563Z,31.80
2018-07-14T17:19:35.915Z,33.00
2018-07-14T17:22:33.593Z,33.00
2018-07-14T17:25:02.463Z,33.80
2018-07-14T17:27:31.613Z,34.30
2018-07-14T17:32:55.170Z,36.40
2018-07-14T17:35:24.778Z,37.10
2018-07-14T17:37:55.455Z,37.80
2018-07-14T17:40:23.671Z,38.30
2018-07-14T17:42:51.849Z,38.90
2018-07-14T17:45:20.119Z,39.20
2018-07-14T17:47:48.327Z,39.60
2018-07-14T17:50:16.540Z,40.20
2018-07-14T17:52:45.603Z,40.70
2018-07-14T17:55:13.772Z,40.80
2018-07-14T17:57:41.939Z,41.30
2018-07-14T18:00:10.107Z,41.60
2018-07-14T18:02:38.315Z,41.80
2018-07-14T18:05:06.467Z,42.00
2018-07-14T18:07:34.670Z,42.40
2018-07-14T18:10:02.934Z,42.40
2018-07-14T18:12:31.131Z,42.70
2018-07-14T18:14:59.376Z,42.90
2018-07-14T18:17:27.618Z,43.10
2018-07-14T18:19:55.753Z,43.40
2018-07-14T18:22:23.908Z,43.60
2018-07-14T18:24:52.059Z,43.70
2018-07-14T18:27:20.224Z,44.10
2018-07-14T18:29:48.409Z,44.50
2018-07-14T18:32:16.560Z,45.00
2018-07-14T18:34:44.742Z,45.50
2018-07-14T18:37:12.903Z,46.00
2018-07-14T18:39:41.101Z,46.10
2018-07-14T18:42:09.281Z,47.20
2018-07-14T18:44:37.569Z,47.60
2018-07-14T18:47:05.770Z,47.50
2018-07-14T18:49:34.009Z,48.10
2018-07-14T18:52:02.207Z,48.70
2018-07-14T18:54:30.392Z,48.60
2018-07-14T18:56:58.563Z,48.90
2018-07-14T18:59:26.774Z,50.00
2018-07-14T19:01:54.931Z,49.90
2018-07-14T19:04:23.164Z,50.30
2018-07-14T19:06:51.410Z,50.70
2018-07-14T19:09:19.555Z,51.00
2018-07-14T19:11:47.769Z,51.30
2018-07-14T19:14:16.037Z,51.50
2018-07-14T19:16:44.212Z,51.60
2018-07-14T19:19:12.448Z,52.30
2018-07-14T19:21:40.607Z,52.30
2018-07-14T19:24:08.847Z,52.30
2018-07-14T19:26:37.077Z,52.80
2018-07-14T19:29:05.374Z,53.80
2018-07-14T19:31:33.721Z,54.00
2018-07-14T19:34:01.894Z,54.60
2018-07-14T19:36:30.101Z,54.80
2018-07-14T19:38:58.296Z,54.80
2018-07-14T19:41:26.490Z,54.80
2018-07-14T19:46:22.779Z,56.30
2018-07-14T19:48:51.075Z,56.80
2018-07-14T19:51:19.365Z,57.60
2018-07-14T19:53:47.547Z,58.10
2018-07-14T19:56:15.831Z,59.00
2018-07-14T19:58:43.961Z,59.60
2018-07-14T20:01:12.130Z,60.30
2018-07-14T20:03:40.584Z,61.20
2018-07-14T20:06:08.826Z,62.00
2018-07-14T20:08:36.984Z,62.40
2018-07-14T20:13:33.115Z,62.70
2018-07-14T20:16:01.342Z,62.50
2018-07-14T20:18:29.519Z,62.80
2018-07-14T20:20:57.807Z,64.20
2018-07-14T20:23:26.028Z,64.70
2018-07-14T20:25:54.179Z,64.50
2018-07-14T20:28:22.332Z,64.70
2018-07-14T20:30:50.774Z,65.20
2018-07-14T20:33:18.995Z,65.20
2018-07-14T20:35:47.275Z,65.80
2018-07-14T20:38:15.500Z,67.20
2018-07-14T20:40:45.383Z,67.30
2018-07-14T20:43:13.605Z,67.00
2018-07-14T20:45:41.817Z,66.70
2018-07-14T20:48:09.963Z,66.90
2018-07-14T20:50:38.148Z,67.90
2018-07-14T20:53:06.403Z,68.10
2018-07-14T20:55:34.735Z,68.90
2018-07-14T20:58:03.044Z,69.40
2018-07-14T21:00:31.311Z,70.90
2018-07-14T21:02:59.609Z,70.40
2018-07-14T21:05:27.898Z,70.70
2018-07-14T21:07:56.120Z,71.80
2018-07-14T21:10:24.279Z,71.70
2018-07-14T21:12:52.600Z,71.90
2018-07-14T21:15:20.940Z,72.70
2018-07-14T21:17:49.231Z,73.90
2018-07-14T21:20:17.466Z,74.40
2018-07-14T21:22:45.627Z,75.20
2018-07-14T21:25:13.786Z,75.80
2018-07-14T21:27:41.957Z,76.50
2018-07-14T21:32:38.076Z,77.90
2018-07-14T21:35:06.514Z,78.50
2018-07-14T21:37:34.666Z,79.00
2018-07-14T21:40:02.872Z,80.10
2018-07-14T21:42:31.022Z,80.50
2018-07-14T21:44:59.175Z,80.50
2018-07-14T21:49:55.332Z,84.00
2018-07-14T21:52:23.549Z,84.90
2018-07-14T21:54:51.696Z,84.70
2018-07-14T21:57:19.839Z,84.70
2018-07-14T21:59:47.995Z,84.60
2018-07-14T22:02:16.189Z,84.70
2018-07-14T22:04:44.365Z,84.70
2018-07-14T22:07:12.621Z,85.80
2018-07-14T22:09:40.724Z,86.50
2018-07-14T22:12:08.991Z,87.40
2018-07-14T22:14:37.264Z,89.00
2018-07-14T22:17:05.808Z,89.60
2018-07-14T22:19:33.983Z,90.40
2018-07-14T22:22:02.175Z,90.30
2018-07-14T22:24:30.348Z,90.50
2018-07-14T22:26:58.539Z,90.80
2018-07-14T22:29:26.787Z,91.10
2018-07-14T22:31:54.871Z,91.30
2018-07-14T22:34:23.079Z,91.30
2018-07-14T22:36:51.245Z,91.20
2018-07-14T22:39:19.428Z,91.40
2018-07-14T22:41:48.793Z,91.70
2018-07-14T22:44:17.724Z,91.90
2018-07-14T22:46:45.901Z,92.00
2018-07-14T22:49:14.118Z,92.30
2018-07-14T22:51:42.290Z,92.50
2018-07-14T22:54:10.459Z,93.10
2018-07-14T22:56:39.074Z,93.30
2018-07-14T22:59:07.229Z,93.20
2018-07-14T23:01:35.388Z,93.10
2018-07-14T23:04:03.592Z,93.20
2018-07-14T23:06:31.769Z,93.30
2018-07-14T23:09:00.024Z,93.50
2018-07-14T23:11:28.192Z,93.90
2018-07-14T23:13:56.453Z,94.00
2018-07-14T23:16:24.632Z,94.00
2018-07-14T23:18:52.833Z,94.00
2018-07-14T23:21:21.003Z,94.00
2018-07-14T23:23:49.190Z,94.10
2018-07-14T23:26:17.367Z,94.20
2018-07-14T23:28:45.517Z,94.40
2018-07-14T23:31:13.690Z,94.50
2018-07-14T23:33:41.852Z,94.60
2018-07-14T23:36:10.022Z,94.70
2018-07-14T23:38:38.299Z,94.90
2018-07-14T23:41:06.508Z,95.10
2018-07-14T23:43:34.707Z,95.20
2018-07-14T23:46:02.894Z,95.20
2018-07-14T23:48:31.082Z,95.50
2018-07-14T23:50:59.243Z,95.70
2018-07-14T23:53:27.444Z,96.10
2018-07-14T23:55:55.616Z,96.40
2018-07-14T23:58:23.779Z,96.20
